createdAt,value
2022-08-30T00:01:28.546Z,101870.88
2022-08-30T00:03:01.377Z,101871.75
2022-08-30T00:04:35.109Z,101867.31
2022-08-30T00:06:07.994Z,101873.50
2022-08-30T00:07:39.874Z,101872.72
2022-08-30T00:09:12.230Z,101869.19
2022-08-30T00:10:44.152Z,101863.94
2022-08-30T00:12:15.939Z,101863.06
2022-08-30T00:13:50.759Z,101853.41
2022-08-30T00:15:23.110Z,101858.75
2022-08-30T00:16:55.043Z,101848.19
2022-08-30T00:18:26.955Z,101851.03
2022-08-30T00:19:58.919Z,101856.34
2022-08-30T00:21:30.765Z,101851.13
2022-08-30T00:23:03.827Z,101845.84
2022-08-30T00:24:35.740Z,101849.38
2022-08-30T00:26:08.306Z,101857.38
2022-08-30T00:27:40.200Z,101856.66
2022-08-30T00:29:12.022Z,101861.97
2022-08-30T00:30:44.625Z,101856.72
2022-08-30T00:32:16.570Z,101858.53
2022-08-30T00:33:48.457Z,101851.63
2022-08-30T00:35:20.671Z,101855.16
2022-08-30T00:36:52.498Z,101852.50
2022-08-30T00:38:24.910Z,101848.97
2022-08-30T00:39:56.884Z,101854.38
2022-08-30T00:41:28.955Z,101851.75
2022-08-30T00:43:05.582Z,101852.59
2022-08-30T00:44:37.856Z,101854.34
2022-08-30T00:46:10.472Z,101865.78
2022-08-30T00:47:42.399Z,101858.69
2022-08-30T00:49:14.662Z,101856.03
2022-08-30T00:50:49.894Z,101865.72
2022-08-30T00:52:22.733Z,101863.13
2022-08-30T00:53:56.903Z,101855.13
2022-08-30T00:55:29.406Z,101858.63
2022-08-30T00:57:01.247Z,101860.44
2022-08-30T00:58:36.874Z,101856.91
2022-08-30T01:00:09.688Z,101862.16
2022-08-30T01:01:42.999Z,101863.94
2022-08-30T01:03:15.870Z,101866.56
2022-08-30T01:04:48.589Z,101864.72
2022-08-30T01:06:20.889Z,101865.59
2022-08-30T01:07:52.747Z,101866.41
2022-08-30T01:09:24.682Z,101864.72
2022-08-30T01:10:57.528Z,101871.75
2022-08-30T01:12:30.188Z,101857.56
2022-08-30T01:14:02.048Z,101854.91
2022-08-30T01:15:34.525Z,101857.66
2022-08-30T01:17:06.661Z,101856.81
2022-08-30T01:18:39.542Z,101862.22
2022-08-30T01:20:18.896Z,101863.94
2022-08-30T01:21:54.781Z,101865.78
2022-08-30T01:23:27.550Z,101862.25
2022-08-30T01:25:00.715Z,101859.75
2022-08-30T01:26:33.171Z,101859.75
2022-08-30T01:28:07.609Z,101863.28
2022-08-30T01:29:39.441Z,101865.94
2022-08-30T01:31:11.485Z,101861.56
2022-08-30T01:32:45.476Z,101868.72
2022-08-30T01:34:17.392Z,101868.81
2022-08-30T01:36:04.383Z,101869.72
2022-08-30T01:37:36.896Z,101874.97
2022-08-30T01:39:10.129Z,101871.41
2022-08-30T01:40:42.295Z,101867.84
2022-08-30T01:42:17.437Z,101877.59
2022-08-30T01:43:50.952Z,101882.00
2022-08-30T01:45:22.873Z,101869.59
2022-08-30T01:46:54.869Z,101870.41
2022-08-30T01:48:31.066Z,101872.19
2022-08-30T01:50:06.259Z,101865.16
2022-08-30T01:51:39.152Z,101875.75
2022-08-30T01:53:13.085Z,101868.66
2022-08-30T01:54:45.834Z,101873.03
2022-08-30T01:56:17.824Z,101874.75
2022-08-30T01:57:49.971Z,101873.13
2022-08-30T01:59:21.817Z,101869.69
2022-08-30T02:00:53.652Z,101869.72
2022-08-30T02:02:27.808Z,101872.47
2022-08-30T02:03:59.895Z,101871.59
2022-08-30T02:05:32.097Z,101868.94
2022-08-30T02:07:04.818Z,101877.84
2022-08-30T02:08:37.023Z,101868.09
2022-08-30T02:10:09.395Z,101865.50
2022-08-30T02:11:41.293Z,101866.41
2022-08-30T02:13:13.531Z,101867.38
2022-08-30T02:14:45.360Z,101869.19
2022-08-30T02:16:23.004Z,101870.06
2022-08-30T02:17:57.121Z,101870.97
2022-08-30T02:19:29.935Z,101861.28
2022-08-30T02:21:01.600Z,101864.75
2022-08-30T02:22:33.479Z,101867.59
2022-08-30T02:24:05.625Z,101861.41
2022-08-30T02:25:37.574Z,101858.81
2022-08-30T02:27:09.502Z,101853.50
2022-08-30T02:28:49.581Z,101861.41
2022-08-30T02:30:22.220Z,101857.88
2022-08-30T02:31:54.229Z,101858.81
2022-08-30T02:33:25.974Z,101858.81
2022-08-30T02:34:57.835Z,101858.81
2022-08-30T02:36:29.591Z,101865.03
2022-08-30T02:38:01.406Z,101857.97
2022-08-30T02:39:33.235Z,101861.63
2022-08-30T02:41:05.413Z,101856.38
2022-08-30T02:42:37.193Z,101849.34
2022-08-30T02:44:10.056Z,101852.00
2022-08-30T02:45:42.303Z,101845.84
2022-08-30T02:47:14.202Z,101845.06
2022-08-30T02:48:46.043Z,101847.78
2022-08-30T02:50:18.315Z,101854.97
2022-08-30T02:51:50.472Z,101850.63
2022-08-30T02:53:23.180Z,101853.28
2022-08-30T02:54:55.399Z,101850.63
2022-08-30T02:56:28.803Z,101844.41
2022-08-30T02:58:00.770Z,101852.31
2022-08-30T02:59:32.831Z,101847.00
2022-08-30T03:01:05.924Z,101849.66
2022-08-30T03:02:38.204Z,101854.13
2022-08-30T03:04:10.252Z,101855.06
2022-08-30T03:05:42.397Z,101847.13
2022-08-30T03:07:14.637Z,101851.66
2022-08-30T03:08:46.399Z,101848.22
2022-08-30T03:10:18.277Z,101842.03
2022-08-30T03:11:50.262Z,101837.69
2022-08-30T03:13:22.140Z,101839.44
2022-08-30T03:14:54.165Z,101839.47
2022-08-30T03:16:26.063Z,101841.22
2022-08-30T03:17:58.603Z,101842.06
2022-08-30T03:19:30.508Z,101843.94
2022-08-30T03:21:02.291Z,101845.81
2022-08-30T03:22:34.335Z,101839.63
2022-08-30T03:24:06.535Z,101837.84
2022-08-30T03:25:39.557Z,101847.59
2022-08-30T03:27:17.500Z,101845.91
2022-08-30T03:28:49.340Z,101842.41
2022-08-30T03:30:21.266Z,101845.06
2022-08-30T03:31:54.113Z,101843.31
2022-08-30T03:33:26.477Z,101845.09
2022-08-30T03:34:59.898Z,101846.88
2022-08-30T03:36:32.597Z,101855.72
2022-08-30T03:38:04.362Z,101857.41
2022-08-30T03:39:36.230Z,101857.44
2022-08-30T03:41:09.161Z,101855.72
2022-08-30T03:42:41.614Z,101847.78
2022-08-30T03:44:15.363Z,101847.78
2022-08-30T03:45:47.210Z,101850.44
2022-08-30T03:47:19.146Z,101847.84
2022-08-30T03:48:52.272Z,101841.69
2022-08-30T03:50:24.169Z,101847.91
2022-08-30T03:51:56.000Z,101846.22
2022-08-30T03:53:27.889Z,101848.03
2022-08-30T03:55:01.246Z,101847.16
2022-08-30T03:56:33.060Z,101852.47
2022-08-30T03:58:04.897Z,101854.22
2022-08-30T03:59:36.842Z,101848.88
2022-08-30T04:01:08.730Z,101856.03
2022-08-30T04:02:41.882Z,101855.16
2022-08-30T04:04:18.613Z,101851.63
2022-08-30T04:05:53.897Z,101849.03
2022-08-30T04:07:25.808Z,101853.41
2022-08-30T04:08:57.639Z,101851.63
2022-08-30T04:10:29.439Z,101847.25
2022-08-30T04:12:01.284Z,101850.75
2022-08-30T04:13:33.913Z,101851.69
2022-08-30T04:15:06.327Z,101851.63
2022-08-30T04:16:38.229Z,101857.88
2022-08-30T04:18:10.357Z,101850.00
2022-08-30T04:19:42.202Z,101843.88
2022-08-30T04:21:14.355Z,101853.59
2022-08-30T04:22:46.181Z,101857.13
2022-08-30T04:24:18.070Z,101858.88
2022-08-30T04:25:49.914Z,101853.59
2022-08-30T04:27:21.766Z,101860.66
2022-08-30T04:28:54.996Z,101859.81
2022-08-30T04:30:26.856Z,101855.50
2022-08-30T04:31:58.696Z,101859.06
2022-08-30T04:33:30.458Z,101852.03
2022-08-30T04:35:07.145Z,101851.16
2022-08-30T04:36:39.131Z,101852.09
2022-08-30T04:38:13.374Z,101853.84
2022-08-30T04:39:46.463Z,101858.28
2022-08-30T04:41:19.634Z,101858.31
2022-08-30T04:42:54.480Z,101862.78
2022-08-30T04:44:27.600Z,101859.28
2022-08-30T04:45:59.571Z,101869.06
2022-08-30T04:47:31.801Z,101869.06
2022-08-30T04:49:04.593Z,101868.19
2022-08-30T04:50:38.443Z,101872.63
2022-08-30T04:52:16.771Z,101885.00
2022-08-30T04:53:48.710Z,101880.59
2022-08-30T04:55:20.660Z,101876.19
2022-08-30T04:56:52.466Z,101872.69
2022-08-30T04:58:24.829Z,101877.13
2022-08-30T04:59:56.713Z,101882.38
2022-08-30T05:01:30.855Z,101876.25
2022-08-30T05:03:02.685Z,101880.63
2022-08-30T05:04:34.498Z,101877.16
2022-08-30T05:06:06.570Z,101878.00
2022-08-30T05:07:38.397Z,101878.06
2022-08-30T05:09:10.354Z,101881.63
2022-08-30T05:10:45.044Z,101872.84
2022-08-30T05:12:16.895Z,101880.84
2022-08-30T05:13:49.890Z,101885.25
2022-08-30T05:15:22.522Z,101885.28
2022-08-30T05:16:54.410Z,101882.63
2022-08-30T05:18:26.908Z,101890.63
2022-08-30T05:20:01.528Z,101882.66
2022-08-30T05:21:33.379Z,101888.94
2022-08-30T05:23:06.235Z,101891.66
2022-08-30T05:24:37.922Z,101898.66
2022-08-30T05:26:13.418Z,101892.56
2022-08-30T05:27:45.303Z,101893.47
2022-08-30T05:29:17.152Z,101893.47
2022-08-30T05:30:49.007Z,101897.88
2022-08-30T05:32:20.847Z,101896.16
2022-08-30T05:33:54.146Z,101905.91
2022-08-30T05:35:26.089Z,101899.75
2022-08-30T05:36:57.987Z,101903.31
2022-08-30T05:38:29.792Z,101905.06
2022-08-30T05:40:02.019Z,101902.34
2022-08-30T05:41:35.508Z,101904.94
2022-08-30T05:43:10.159Z,101908.47
2022-08-30T05:44:48.703Z,101906.66
2022-08-30T05:46:22.161Z,101898.78
2022-08-30T05:47:54.265Z,101920.00
2022-08-30T05:49:26.095Z,101901.50
2022-08-30T05:51:12.036Z,101905.88
2022-08-30T05:52:45.282Z,101909.38
2022-08-30T05:54:17.176Z,101904.06
2022-08-30T05:55:49.011Z,101906.72
2022-08-30T05:57:20.900Z,101901.47
2022-08-30T05:58:53.101Z,101905.88
2022-08-30T06:00:25.085Z,101904.06
2022-08-30T06:01:58.079Z,101904.94
2022-08-30T06:03:32.916Z,101907.59
2022-08-30T06:05:05.279Z,101904.00
2022-08-30T06:06:39.737Z,101901.31
2022-08-30T06:08:11.580Z,101902.13
2022-08-30T06:09:43.454Z,101902.16
2022-08-30T06:11:17.782Z,101902.19
2022-08-30T06:12:49.674Z,101900.38
2022-08-30T06:14:21.706Z,101910.00
2022-08-30T06:15:53.576Z,101910.88
2022-08-30T06:17:25.461Z,101908.22
2022-08-30T06:18:58.568Z,101904.69
2022-08-30T06:20:30.456Z,101907.34
2022-08-30T06:22:02.351Z,101904.66
2022-08-30T06:23:34.622Z,101908.22
2022-08-30T06:25:06.921Z,101909.03
2022-08-30T06:26:41.654Z,101910.88
2022-08-30T06:28:13.679Z,101914.34
2022-08-30T06:29:45.539Z,101911.75
2022-08-30T06:31:19.459Z,101901.22
2022-08-30T06:32:51.319Z,101908.25
2022-08-30T06:34:23.214Z,101906.41
2022-08-30T06:35:58.853Z,101909.94
2022-08-30T06:37:33.071Z,101908.19
2022-08-30T06:39:05.916Z,101909.09
2022-08-30T06:40:37.841Z,101905.47
2022-08-30T06:42:09.806Z,101911.63
2022-08-30T06:43:44.468Z,101906.28
2022-08-30T06:45:20.698Z,101908.84
2022-08-30T06:46:52.597Z,101911.47
2022-08-30T06:48:24.538Z,101910.44
2022-08-30T06:49:57.057Z,101911.19
2022-08-30T06:51:31.673Z,101911.94
2022-08-30T06:53:06.165Z,101908.25
2022-08-30T06:54:38.565Z,101908.19
2022-08-30T06:56:16.552Z,101903.63
2022-08-30T06:57:49.179Z,101904.38
2022-08-30T06:59:21.063Z,101891.94
2022-08-30T07:00:53.323Z,101898.88
2022-08-30T07:02:25.837Z,101900.63
2022-08-30T07:03:58.829Z,101909.41
2022-08-30T07:05:30.677Z,101904.13
2022-08-30T07:07:02.610Z,101900.50
2022-08-30T07:08:34.455Z,101900.38
2022-08-30T07:10:08.084Z,101898.50
2022-08-30T07:11:40.650Z,101900.97
2022-08-30T07:13:12.672Z,101907.94
2022-08-30T07:14:44.655Z,101905.06
2022-08-30T07:16:16.559Z,101897.88
2022-08-30T07:18:06.950Z,101914.50
2022-08-30T07:19:38.800Z,101908.09
2022-08-30T07:21:13.738Z,101909.63
2022-08-30T07:22:46.629Z,101909.28
2022-08-30T07:24:19.613Z,101913.34
2022-08-30T07:25:51.490Z,101911.28
2022-08-30T07:27:23.268Z,101909.31
2022-08-30T07:28:56.175Z,101920.81
2022-08-30T07:30:28.358Z,101918.97
2022-08-30T07:32:00.285Z,101912.72
2022-08-30T07:33:32.684Z,101912.56
2022-08-30T07:35:05.346Z,101917.59
2022-08-30T07:36:38.058Z,101910.41
2022-08-30T07:38:14.284Z,101904.84
2022-08-30T07:39:48.064Z,101910.94
2022-08-30T07:41:26.627Z,101916.06
2022-08-30T07:43:02.139Z,101910.69
2022-08-30T07:44:34.016Z,101912.44
2022-08-30T07:46:07.950Z,101911.38
2022-08-30T07:47:41.132Z,101911.16
2022-08-30T07:49:13.159Z,101916.16
2022-08-30T07:50:46.211Z,101920.38
2022-08-30T07:52:18.014Z,101927.25
2022-08-30T07:53:49.851Z,101928.94
2022-08-30T07:55:21.790Z,101927.94
2022-08-30T07:56:55.906Z,101919.91
2022-08-30T07:58:27.883Z,101923.31
2022-08-30T07:59:59.849Z,101924.03
2022-08-30T08:01:32.085Z,101918.59
2022-08-30T08:03:08.641Z,101918.66
2022-08-30T08:04:40.826Z,101920.28
2022-08-30T08:06:14.811Z,101917.38
2022-08-30T08:07:46.791Z,101922.47
2022-08-30T08:09:19.839Z,101916.06
2022-08-30T08:10:51.800Z,101922.91
2022-08-30T08:12:23.675Z,101914.69
2022-08-30T08:13:55.677Z,101921.53
2022-08-30T08:15:28.654Z,101920.44
2022-08-30T08:17:00.949Z,101928.16
2022-08-30T08:18:33.464Z,101919.13
2022-08-30T08:20:08.580Z,101919.88
2022-08-30T08:21:40.674Z,101921.38
2022-08-30T08:23:12.556Z,101919.41
2022-08-30T08:24:44.604Z,101919.00
2022-08-30T08:26:16.529Z,101920.50
2022-08-30T08:27:50.846Z,101920.22
2022-08-30T08:29:23.135Z,101920.84
2022-08-30T08:30:55.903Z,101922.34
2022-08-30T08:32:27.836Z,101925.72
2022-08-30T08:35:33.817Z,101922.81
2022-08-30T08:37:05.706Z,101924.47
2022-08-30T08:38:37.891Z,101918.22
2022-08-30T08:40:15.264Z,101920.88
2022-08-30T08:42:18.098Z,101922.59
2022-08-30T08:43:49.975Z,101926.81
2022-08-30T08:45:27.250Z,101932.59
2022-08-30T08:47:06.122Z,101930.69
2022-08-30T08:49:00.071Z,101924.91
2022-08-30T08:50:32.413Z,101928.25
2022-08-30T08:52:24.853Z,101921.25
2022-08-30T08:54:06.967Z,101916.72
2022-08-30T08:55:49.194Z,101925.34
2022-08-30T08:57:24.466Z,101919.94
2022-08-30T08:58:58.131Z,101922.50
2022-08-30T09:00:32.259Z,101924.19
2022-08-30T09:02:28.700Z,101925.97
2022-08-30T09:04:08.052Z,101916.97
2022-08-30T09:05:40.864Z,101920.44
2022-08-30T09:07:21.509Z,101917.59
2022-08-30T09:08:53.305Z,101925.25
2022-08-30T09:10:46.975Z,101919.56
2022-08-30T09:12:18.222Z,101918.31
2022-08-30T09:13:50.703Z,101918.03
2022-08-30T09:15:29.815Z,101917.66
2022-08-30T09:17:11.195Z,101919.06
2022-08-30T09:18:46.911Z,101916.25
2022-08-30T09:20:26.582Z,101919.25
2022-08-30T09:21:59.863Z,101912.63
2022-08-30T09:23:32.566Z,101914.69
2022-08-30T09:25:19.135Z,101909.63
2022-08-30T09:26:50.979Z,101909.19
2022-08-30T09:28:35.860Z,101908.75
2022-08-30T09:30:15.613Z,101911.69
2022-08-30T09:32:05.637Z,101913.06
2022-08-30T09:33:55.505Z,101917.31
2022-08-30T09:35:48.855Z,101909.50
2022-08-30T09:37:37.189Z,101914.94
2022-08-30T09:39:41.666Z,101910.13
2022-08-30T09:41:40.399Z,101913.84
2022-08-30T09:43:18.412Z,101901.97
2022-08-30T09:44:50.746Z,101914.09
2022-08-30T09:46:24.704Z,101910.84
2022-08-30T09:47:56.597Z,101909.66
2022-08-30T09:49:37.919Z,101910.06
2022-08-30T09:51:13.339Z,101904.38
2022-08-30T09:53:14.925Z,101895.41
2022-08-30T09:55:21.180Z,101897.31
2022-08-30T09:57:01.820Z,101893.66
2022-08-30T09:59:11.799Z,101895.53
2022-08-30T10:00:50.960Z,101893.28
2022-08-30T10:02:40.817Z,101888.53
2022-08-30T10:04:30.970Z,101890.50
2022-08-30T10:06:29.347Z,101899.59
2022-08-30T10:08:35.422Z,101894.31
2022-08-30T10:10:27.364Z,101902.13
2022-08-30T10:12:20.645Z,101893.41
2022-08-30T10:14:01.548Z,101896.69
2022-08-30T10:15:34.763Z,101894.31
2022-08-30T10:17:13.596Z,101888.00
2022-08-30T10:19:06.222Z,101892.38
2022-08-30T10:20:59.767Z,101892.31
2022-08-30T10:22:33.820Z,101893.69
2022-08-30T10:24:14.395Z,101891.00
2022-08-30T10:26:36.824Z,101888.31
2022-08-30T10:28:14.806Z,101886.97
2022-08-30T10:29:49.292Z,101897.47
2022-08-30T10:33:27.111Z,101891.66
2022-08-30T10:35:07.356Z,101890.41
2022-08-30T10:36:58.542Z,101890.53
2022-08-30T10:38:35.668Z,101875.09
2022-08-30T10:40:37.027Z,101880.41
2022-08-30T10:42:13.761Z,101884.50
2022-08-30T10:44:28.784Z,101885.78
2022-08-30T10:46:04.322Z,101886.75
2022-08-30T10:47:43.904Z,101881.28
2022-08-30T10:49:19.837Z,101891.38
2022-08-30T10:50:54.789Z,101888.38
2022-08-30T10:52:45.043Z,101883.84
2022-08-30T10:54:24.114Z,101880.09
2022-08-30T10:56:07.794Z,101880.44
2022-08-30T10:57:42.954Z,101879.94
2022-08-30T10:59:18.131Z,101881.00
2022-08-30T11:01:28.619Z,101876.63
2022-08-30T11:03:34.307Z,101882.78
2022-08-30T11:05:26.114Z,101880.41
2022-08-30T11:07:22.571Z,101874.03
2022-08-30T11:09:11.841Z,101873.22
2022-08-30T11:11:14.579Z,101866.47
2022-08-30T11:12:56.748Z,101877.31
2022-08-30T11:14:29.178Z,101867.53
2022-08-30T11:16:08.105Z,101871.22
2022-08-30T11:17:55.470Z,101874.84
2022-08-30T11:19:38.744Z,101880.16
2022-08-30T11:21:36.868Z,101879.25
2022-08-30T11:23:27.360Z,101870.22
2022-08-30T11:25:11.626Z,101874.44
2022-08-30T11:26:47.008Z,101863.78
2022-08-30T11:28:37.006Z,101866.22
2022-08-30T11:30:24.228Z,101867.66
2022-08-30T11:32:24.870Z,101867.66
2022-08-30T11:33:59.650Z,101865.00
2022-08-30T11:35:38.847Z,101863.69
2022-08-30T11:37:28.629Z,101863.59
2022-08-30T11:39:09.319Z,101861.00
2022-08-30T11:40:46.178Z,101870.53
2022-08-30T11:42:37.529Z,101868.13
2022-08-30T11:44:20.950Z,101871.28
2022-08-30T11:45:55.723Z,101870.44
2022-08-30T11:47:56.031Z,101850.31
2022-08-30T11:49:53.923Z,101848.88
2022-08-30T11:54:19.526Z,101845.81
2022-08-30T11:56:13.255Z,101853.50
2022-08-30T11:58:00.752Z,101842.94
2022-08-30T11:59:57.247Z,101834.56
2022-08-30T12:01:50.383Z,101835.59
2022-08-30T12:03:33.158Z,101836.47
2022-08-30T12:05:07.106Z,101835.50
2022-08-30T12:06:41.706Z,101838.50
2022-08-30T12:08:21.157Z,101827.53
2022-08-30T12:09:59.305Z,101826.59
2022-08-30T12:11:31.768Z,101834.47
2022-08-30T12:13:04.280Z,101833.03
2022-08-30T12:14:48.101Z,101833.91
2022-08-30T12:17:04.951Z,101836.00
2022-08-30T12:18:39.482Z,101828.66
2022-08-30T12:20:23.990Z,101827.19
2022-08-30T12:22:08.379Z,101832.19
2022-08-30T12:23:49.009Z,101830.16
2022-08-30T12:25:32.367Z,101822.28
2022-08-30T12:27:24.967Z,101831.41
2022-08-30T12:29:31.919Z,101826.94
2022-08-30T12:31:11.889Z,101836.00
2022-08-30T12:32:47.515Z,101834.03
2022-08-30T12:34:28.417Z,101822.28
2022-08-30T12:36:01.491Z,101826.81
2022-08-30T12:37:37.630Z,101815.38
2022-08-30T12:39:19.341Z,101812.31
2022-08-30T12:40:58.002Z,101819.78
2022-08-30T12:42:32.577Z,101818.84
2022-08-30T12:44:05.090Z,101818.72
2022-08-30T12:45:45.474Z,101827.56
2022-08-30T12:47:25.914Z,101816.63
2022-08-30T12:48:57.805Z,101821.91
2022-08-30T12:50:36.509Z,101818.06
2022-08-30T12:52:28.833Z,101819.59
2022-08-30T12:54:31.224Z,101827.75
2022-08-30T12:56:05.016Z,101817.00
2022-08-30T12:58:10.125Z,101808.56
2022-08-30T12:59:59.184Z,101818.22
2022-08-30T13:01:37.453Z,101814.97
2022-08-30T13:03:30.429Z,101814.00
2022-08-30T13:05:22.975Z,101810.56
2022-08-30T13:06:57.783Z,101807.56
2022-08-30T13:08:42.162Z,101802.09
2022-08-30T13:10:20.039Z,101805.88
2022-08-30T13:11:52.104Z,101802.31
2022-08-30T13:13:30.761Z,101800.47
2022-08-30T13:15:18.771Z,101806.22
2022-08-30T13:17:05.612Z,101804.78
2022-08-30T13:18:38.264Z,101806.31
2022-08-30T13:20:16.280Z,101803.75
2022-08-30T13:21:52.875Z,101797.31
2022-08-30T13:23:24.709Z,101797.19
2022-08-30T13:24:57.332Z,101801.81
2022-08-30T13:26:32.483Z,101803.88
2022-08-30T13:28:06.104Z,101802.34
2022-08-30T13:29:38.576Z,101801.69
2022-08-30T13:31:10.427Z,101795.88
2022-08-30T13:32:42.732Z,101795.34
2022-08-30T13:34:14.639Z,101798.69
2022-08-30T13:35:46.693Z,101797.94
2022-08-30T13:39:14.685Z,101786.50
2022-08-30T13:40:47.552Z,101784.13
2022-08-30T13:42:34.750Z,101785.00
2022-08-30T13:44:11.392Z,101785.47
2022-08-30T13:45:47.247Z,101788.75
2022-08-30T13:47:35.621Z,101781.69
2022-08-30T13:51:04.672Z,101768.25
2022-08-30T13:52:36.644Z,101771.16
2022-08-30T13:54:08.524Z,101772.66
2022-08-30T13:55:41.757Z,101773.28
2022-08-30T13:57:14.161Z,101765.19
2022-08-30T13:58:46.466Z,101765.69
2022-08-30T14:00:21.863Z,101765.59
2022-08-30T14:02:11.909Z,101753.19
2022-08-30T14:06:15.532Z,101750.41
2022-08-30T14:07:32.132Z,101749.16
2022-08-30T14:09:07.261Z,101749.16
2022-08-30T14:10:47.020Z,101747.56
2022-08-30T14:12:52.532Z,101750.25
2022-08-30T14:14:16.100Z,101758.66
2022-08-30T14:17:50.560Z,101757.56
2022-08-30T14:19:22.366Z,101748.31
2022-08-30T14:20:54.296Z,101746.91
2022-08-30T14:22:26.507Z,101755.84
2022-08-30T14:23:58.940Z,101761.22
2022-08-30T14:25:31.631Z,101761.34
2022-08-30T14:27:03.450Z,101762.75
2022-08-30T14:28:35.275Z,101754.41
2022-08-30T14:30:08.713Z,101748.81
2022-08-30T14:31:40.625Z,101744.06
2022-08-30T14:33:13.340Z,101749.47
2022-08-30T14:34:45.441Z,101743.88
2022-08-30T14:36:20.056Z,101739.25
2022-08-30T14:37:52.834Z,101742.81
2022-08-30T14:39:24.868Z,101733.44
2022-08-30T14:40:56.719Z,101737.94
2022-08-30T14:42:32.589Z,101737.72
2022-08-30T14:44:04.447Z,101733.72
2022-08-30T14:45:38.652Z,101739.53
2022-08-30T14:47:11.618Z,101729.84
2022-08-30T14:48:43.473Z,101727.50
2022-08-30T14:50:16.109Z,101729.66
2022-08-30T14:51:51.317Z,101730.09
2022-08-30T14:53:23.187Z,101731.38
2022-08-30T14:54:58.602Z,101724.25
2022-08-30T14:56:32.208Z,101721.91
2022-08-30T14:58:06.960Z,101706.38
2022-08-30T14:59:38.898Z,101718.03
2022-08-30T15:01:12.747Z,101716.06
2022-08-30T15:02:45.729Z,101712.63
2022-08-30T15:04:18.274Z,101725.88
2022-08-30T15:05:53.470Z,101716.28
2022-08-30T15:07:25.365Z,101724.25
2022-08-30T15:08:57.713Z,101721.69
2022-08-30T15:10:30.244Z,101720.81
2022-08-30T15:12:03.886Z,101721.47
2022-08-30T15:13:36.177Z,101718.03
2022-08-30T15:15:08.667Z,101717.16
2022-08-30T15:16:41.523Z,101714.78
2022-08-30T15:18:13.548Z,101719.44
2022-08-30T15:19:45.585Z,101714.44
2022-08-30T15:21:49.694Z,101710.88
2022-08-30T15:23:22.813Z,101711.31
2022-08-30T15:25:01.708Z,101714.63
2022-08-30T15:26:33.631Z,101711.03
2022-08-30T15:28:05.457Z,101714.91
2022-08-30T15:29:37.731Z,101707.00
2022-08-30T15:31:09.776Z,101706.44
2022-08-30T15:32:41.707Z,101707.72
2022-08-30T15:34:18.554Z,101703.75
2022-08-30T15:35:52.524Z,101708.91
2022-08-30T15:37:27.292Z,101699.16
2022-08-30T15:39:00.644Z,101696.00
2022-08-30T15:40:33.297Z,101704.09
2022-08-30T15:42:06.402Z,101697.63
2022-08-30T15:43:38.929Z,101697.63
2022-08-30T15:45:11.226Z,101702.53
2022-08-30T15:46:45.251Z,101700.59
2022-08-30T15:48:17.420Z,101688.66
2022-08-30T15:49:57.439Z,101696.41
2022-08-30T15:51:41.717Z,101697.38
2022-08-30T15:53:13.931Z,101691.03
2022-08-30T15:54:48.444Z,101686.91
2022-08-30T15:56:20.625Z,101691.66
2022-08-30T15:57:52.484Z,101695.06
2022-08-30T15:59:28.411Z,101690.59
2022-08-30T16:01:00.407Z,101691.78
2022-08-30T16:02:32.391Z,101689.75
2022-08-30T16:04:04.405Z,101692.16
2022-08-30T16:05:36.295Z,101680.34
2022-08-30T16:07:08.819Z,101686.03
2022-08-30T16:08:40.724Z,101678.59
2022-08-30T16:10:14.452Z,101673.84
2022-08-30T16:11:46.259Z,101677.75
2022-08-30T16:13:18.750Z,101680.22
2022-08-30T16:14:51.099Z,101673.88
2022-08-30T16:16:23.761Z,101672.38
2022-08-30T16:17:56.527Z,101668.25
2022-08-30T16:19:29.989Z,101675.78
2022-08-30T16:21:19.186Z,101672.75
2022-08-30T16:22:51.540Z,101676.69
2022-08-30T16:24:25.898Z,101667.34
2022-08-30T16:26:03.285Z,101663.09
2022-08-30T16:27:36.256Z,101674.03
2022-08-30T16:29:08.830Z,101672.72
2022-08-30T16:30:40.830Z,101671.78
2022-08-30T16:32:15.870Z,101666.63
2022-08-30T16:33:48.238Z,101669.50
2022-08-30T16:35:24.767Z,101671.53
2022-08-30T16:36:56.633Z,101667.69
2022-08-30T16:38:28.857Z,101680.44
2022-08-30T16:40:01.565Z,101677.75
2022-08-30T16:41:33.540Z,101677.66
2022-08-30T16:43:06.399Z,101671.53
2022-08-30T16:44:38.282Z,101666.34
2022-08-30T16:46:13.460Z,101677.38
2022-08-30T16:47:45.321Z,101674.50
2022-08-30T16:49:17.982Z,101678.34
2022-08-30T16:50:50.466Z,101675.66
2022-08-30T16:52:22.294Z,101679.22
2022-08-30T16:54:03.862Z,101676.81
2022-08-30T16:55:36.854Z,101672.53
2022-08-30T16:57:08.681Z,101677.31
2022-08-30T16:58:41.319Z,101676.09
2022-08-30T17:00:14.165Z,101681.94
2022-08-30T17:01:46.053Z,101681.25
2022-08-30T17:03:21.171Z,101680.59
2022-08-30T17:04:53.370Z,101687.22
2022-08-30T17:06:25.616Z,101683.66
2022-08-30T17:07:58.260Z,101685.66
2022-08-30T17:09:29.949Z,101688.63
2022-08-30T17:11:02.043Z,101686.13
2022-08-30T17:12:33.904Z,101681.31
2022-08-30T17:14:08.350Z,101692.03
2022-08-30T17:15:40.349Z,101693.19
2022-08-30T17:17:13.565Z,101689.78
2022-08-30T17:18:45.953Z,101686.13
2022-08-30T17:20:18.475Z,101686.41
2022-08-30T17:21:50.358Z,101684.09
2022-08-30T17:23:23.373Z,101690.97
2022-08-30T17:24:55.624Z,101683.97
2022-08-30T17:26:28.116Z,101696.34
2022-08-30T17:28:00.438Z,101696.34
2022-08-30T17:29:32.906Z,101699.97
2022-08-30T17:31:05.891Z,101696.78
2022-08-30T17:32:37.890Z,101697.25
2022-08-30T17:34:13.289Z,101696.66
2022-08-30T17:35:45.261Z,101700.34
2022-08-30T17:37:20.403Z,101709.34
2022-08-30T17:38:52.282Z,101713.16
2022-08-30T17:40:24.247Z,101715.34
2022-08-30T17:41:59.506Z,101705.91
2022-08-30T17:43:35.956Z,101716.78
2022-08-30T17:45:09.551Z,101707.78
2022-08-30T17:46:41.538Z,101720.22
2022-08-30T17:48:13.414Z,101727.69
2022-08-30T17:49:45.324Z,101715.56
2022-08-30T17:51:17.147Z,101716.88
2022-08-30T17:52:50.328Z,101725.09
2022-08-30T17:54:22.290Z,101720.69
2022-08-30T17:55:56.729Z,101731.22
2022-08-30T17:57:30.429Z,101734.06
2022-08-30T17:59:04.973Z,101733.28
2022-08-30T18:00:36.789Z,101730.63
2022-08-30T18:02:11.165Z,101736.16
2022-08-30T18:03:45.203Z,101742.59
2022-08-30T18:05:17.396Z,101741.97
2022-08-30T18:06:57.557Z,101740.50
2022-08-30T18:08:31.196Z,101738.00
2022-08-30T18:10:04.585Z,101742.66
2022-08-30T18:11:39.773Z,101756.31
2022-08-30T18:13:12.616Z,101754.03
2022-08-30T18:14:44.655Z,101757.09
2022-08-30T18:16:21.417Z,101752.94
2022-08-30T18:17:53.669Z,101765.53
2022-08-30T18:19:29.714Z,101751.38
2022-08-30T18:21:01.514Z,101760.47
2022-08-30T18:22:33.359Z,101758.75
2022-08-30T18:24:06.102Z,101762.47
2022-08-30T18:25:37.998Z,101762.78
2022-08-30T18:27:09.975Z,101763.03
2022-08-30T18:28:43.091Z,101761.28